Time;durP1;ratioP1;P1;durP2;ratioP2;P2;SDS_P1;SDS_P2;PMS_P1;PMS_P2;Temp;Humidity;BMP_temperature;BMP_pressure;BME280_temperature;BME280_humidity;BME280_pressure;Samples;Min_cycle;Max_cycle;Signal;HPM_P1;HPM_P2
2022/07/01 00:00:15;;;;;;;;;;;17.60;99.90;;;;;;4362440;32;44213;-77
2022/07/01 00:02:45;;;;;;;;;;;17.60;99.90;;;;;;4361905;32;42753;-77
2022/07/01 00:05:12;;;;;;;;;;;17.60;99.90;;;;;;4375381;32;43563;-79
2022/07/01 00:07:39;;;;;;;;;;;17.60;99.90;;;;;;4375438;32;43770;-77
2022/07/01 00:10:07;;;;;;;;;;;17.60;99.90;;;;;;4362381;32;43203;-77
2022/07/01 00:12:36;;;;;;;;;;;17.50;99.90;;;;;;4375661;32;43904;-77
2022/07/01 00:15:04;;;;;;;;;;;17.50;99.90;;;;;;4375225;32;43494;-77
2022/07/01 00:17:31;;;;;;;;;;;17.50;99.90;;;;;;4375140;32;43874;-77
2022/07/01 00:19:58;;;;;;;;;;;17.50;99.90;;;;;;4375582;32;42551;-77
2022/07/01 00:22:27;;;;;;;;;;;17.50;99.90;;;;;;4375630;32;43285;-77
2022/07/01 00:24:54;;;;;;;;;;;17.40;99.90;;;;;;4375174;32;43688;-77
2022/07/01 00:27:24;;;;;;;;;;;17.40;99.90;;;;;;4375516;32;44238;-77
2022/07/01 00:29:51;;;;;;;;;;;17.40;99.90;;;;;;4375414;32;41962;-77
2022/07/01 00:32:18;;;;;;;;;;;17.40;99.90;;;;;;4374925;32;43309;-77
2022/07/01 00:34:45;;;;;;;;;;;17.40;99.90;;;;;;4374983;32;45793;-79
2022/07/01 00:37:12;;;;;;;;;;;17.30;99.90;;;;;;4375169;32;43127;-79
2022/07/01 00:39:39;;;;;;;;;;;17.30;99.90;;;;;;4374840;32;42962;-80
2022/07/01 00:42:07;;;;;;;;;;;17.30;99.90;;;;;;4375055;32;44866;-77
2022/07/01 00:44:37;;;;;;;;;;;17.30;99.90;;;;;;4374774;32;43865;-78
2022/07/01 00:47:08;;;;;;;;;;;17.30;99.90;;;;;;4375343;32;44258;-79
2022/07/01 00:49:35;;;;;;;;;;;17.30;99.90;;;;;;4375122;32;43579;-79
2022/07/01 00:52:03;;;;;;;;;;;17.30;99.90;;;;;;4375008;32;45751;-77
2022/07/01 00:54:30;;;;;;;;;;;17.30;99.90;;;;;;4361646;32;42714;-79
2022/07/01 00:56:57;;;;;;;;;;;17.30;99.90;;;;;;4374916;32;43852;-79
2022/07/01 00:59:25;;;;;;;;;;;17.30;99.90;;;;;;4361398;32;43885;-77
2022/07/01 01:01:54;;;;;;;;;;;17.30;99.90;;;;;;4374776;32;45147;-77
2022/07/01 01:04:21;;;;;;;;;;;17.20;99.90;;;;;;4375380;32;43604;-78
2022/07/01 01:06:51;;;;;;;;;;;17.20;99.90;;;;;;4374581;32;43923;-79
2022/07/01 01:09:18;;;;;;;;;;;17.20;99.90;;;;;;4374858;32;43478;-79
2022/07/01 01:11:45;;;;;;;;;;;17.20;99.90;;;;;;4374982;32;43328;-77
2022/07/01 01:14:13;;;;;;;;;;;17.20;99.90;;;;;;4361379;32;43622;-77
2022/07/01 01:16:40;;;;;;;;;;;17.20;99.90;;;;;;4375022;32;43858;-78
2022/07/01 01:19:08;;;;;;;;;;;17.20;99.90;;;;;;4374488;32;44017;-77
2022/07/01 01:21:38;;;;;;;;;;;17.20;99.90;;;;;;4374905;32;44181;-77
2022/07/01 01:24:07;;;;;;;;;;;17.20;99.90;;;;;;4361068;32;44066;-78
2022/07/01 01:26:34;;;;;;;;;;;17.20;99.90;;;;;;4362690;32;43830;-78
2022/07/01 01:29:01;;;;;;;;;;;17.20;99.90;;;;;;4364103;32;44139;-77
2022/07/01 01:31:33;;;;;;;;;;;17.10;99.90;;;;;;4377464;32;42420;-77
2022/07/01 01:34:00;;;;;;;;;;;17.10;99.90;;;;;;4364639;32;42744;-77
2022/07/01 01:36:30;;;;;;;;;;;17.10;99.90;;;;;;4363994;32;44211;-78
2022/07/01 01:39:03;;;;;;;;;;;17.10;99.90;;;;;;4364500;32;44200;-78
2022/07/01 01:41:30;;;;;;;;;;;17.10;99.90;;;;;;4378139;32;20443;-78
2022/07/01 01:44:00;;;;;;;;;;;17.10;99.90;;;;;;4363841;32;42946;-78
2022/07/01 01:46:29;;;;;;;;;;;17.10;99.90;;;;;;4377765;32;43872;-78
2022/07/01 01:48:56;;;;;;;;;;;17.00;99.90;;;;;;4364196;32;44783;-79
2022/07/01 01:51:23;;;;;;;;;;;17.00;99.90;;;;;;4377184;32;42807;-81
2022/07/01 01:53:50;;;;;;;;;;;17.00;99.90;;;;;;4377131;32;44210;-79
2022/07/01 01:56:17;;;;;;;;;;;17.00;99.90;;;;;;4377280;32;42490;-79
2022/07/01 01:58:47;;;;;;;;;;;17.00;99.90;;;;;;4364487;32;42921;-81
2022/07/01 02:01:14;;;;;;;;;;;16.90;99.90;;;;;;4377570;32;44354;-77
2022/07/01 02:03:44;;;;;;;;;;;16.90;99.90;;;;;;4377268;32;43812;-78
2022/07/01 02:06:12;;;;;;;;;;;16.90;99.90;;;;;;4364006;32;43861;-78
2022/07/01 02:08:42;;;;;;;;;;;16.90;99.90;;;;;;4364093;32;43883;-78
2022/07/01 02:11:09;;;;;;;;;;;16.90;99.90;;;;;;4376886;32;42951;-79
2022/07/01 02:13:36;;;;;;;;;;;16.90;99.90;;;;;;4376891;32;43011;-78
2022/07/01 02:16:04;;;;;;;;;;;16.90;99.90;;;;;;4376867;32;44362;-78
2022/07/01 02:18:32;;;;;;;;;;;16.90;99.90;;;;;;4377218;32;41687;-82
2022/07/01 02:20:59;;;;;;;;;;;16.90;99.90;;;;;;4363433;32;42328;-81
2022/07/01 02:23:26;;;;;;;;;;;16.80;99.90;;;;;;4376805;32;43766;-78
2022/07/01 02:25:53;;;;;;;;;;;16.80;99.90;;;;;;4377195;32;43207;-77
2022/07/01 02:28:20;;;;;;;;;;;16.80;99.90;;;;;;4376739;32;43253;-79
2022/07/01 02:30:48;;;;;;;;;;;16.80;99.90;;;;;;4363252;32;44228;-77
2022/07/01 02:33:15;;;;;;;;;;;16.80;99.90;;;;;;4363221;32;42922;-80
2022/07/01 02:35:48;;;;;;;;;;;16.80;99.90;;;;;;4376633;32;42092;-79
2022/07/01 02:38:15;;;;;;;;;;;16.80;99.90;;;;;;4363481;32;43542;-78
2022/07/01 02:40:45;;;;;;;;;;;16.80;99.90;;;;;;4363437;32;43721;-78
2022/07/01 02:43:13;;;;;;;;;;;16.70;99.90;;;;;;4376759;32;44050;-80
2022/07/01 02:45:41;;;;;;;;;;;16.70;99.90;;;;;;4376475;32;44176;-80
2022/07/01 02:48:08;;;;;;;;;;;16.70;99.90;;;;;;4363086;32;43489;-80
2022/07/01 02:50:37;;;;;;;;;;;16.70;99.90;;;;;;4376355;32;43904;-80
2022/07/01 02:53:04;;;;;;;;;;;16.70;99.90;;;;;;4376578;32;43417;-78
2022/07/01 02:55:31;;;;;;;;;;;16.70;99.90;;;;;;4376706;32;43090;-80
2022/07/01 02:57:58;;;;;;;;;;;16.70;99.90;;;;;;4376170;32;44060;-78
2022/07/01 03:00:25;;;;;;;;;;;16.70;99.90;;;;;;4363255;32;43724;-78
2022/07/01 03:02:52;;;;;;;;;;;16.70;99.90;;;;;;4362578;32;43904;-80
2022/07/01 03:05:19;;;;;;;;;;;16.60;99.90;;;;;;4376136;32;43005;-78
2022/07/01 03:07:46;;;;;;;;;;;16.60;99.90;;;;;;4362826;32;43923;-79
2022/07/01 03:10:14;;;;;;;;;;;16.60;99.90;;;;;;4363304;32;43482;-78
2022/07/01 03:12:41;;;;;;;;;;;16.60;99.90;;;;;;4362659;32;43899;-77
2022/07/01 03:15:09;;;;;;;;;;;16.60;99.90;;;;;;4376457;32;42484;-77
2022/07/01 03:17:38;;;;;;;;;;;16.60;99.90;;;;;;4376506;32;45760;-77
2022/07/01 03:20:06;;;;;;;;;;;16.60;99.90;;;;;;4376277;32;43595;-79
2022/07/01 03:22:34;;;;;;;;;;;16.60;99.90;;;;;;4375861;32;45177;-80
2022/07/01 03:25:02;;;;;;;;;;;16.60;99.90;;;;;;4362550;32;44030;-78
2022/07/01 03:27:30;;;;;;;;;;;16.60;99.90;;;;;;4376272;32;43060;-80
2022/07/01 03:29:57;;;;;;;;;;;16.60;99.90;;;;;;4375811;32;43564;-80
2022/07/01 03:32:24;;;;;;;;;;;16.60;99.90;;;;;;4375784;32;45710;-79
2022/07/01 03:34:52;;;;;;;;;;;16.50;99.90;;;;;;4362653;32;42664;-78
2022/07/01 03:37:23;;;;;;;;;;;16.50;99.90;;;;;;4376276;32;42887;-80
2022/07/01 03:39:53;;;;;;;;;;;16.50;99.90;;;;;;4362274;32;42547;-78
2022/07/01 03:42:22;;;;;;;;;;;16.50;99.90;;;;;;4362554;32;42512;-78
2022/07/01 03:44:49;;;;;;;;;;;16.50;99.90;;;;;;4375771;32;42529;-77
2022/07/01 03:47:16;;;;;;;;;;;16.50;99.90;;;;;;4376212;32;43044;-78
2022/07/01 03:49:43;;;;;;;;;;;16.50;99.90;;;;;;4374965;32;43470;-80
2022/07/01 03:52:10;;;;;;;;;;;16.50;99.90;;;;;;4375840;32;42954;-78
2022/07/01 03:54:38;;;;;;;;;;;16.50;99.90;;;;;;4375666;32;43709;-77
2022/07/01 03:57:08;;;;;;;;;;;16.50;99.90;;;;;;4362626;32;45685;-78
2022/07/01 03:59:38;;;;;;;;;;;16.50;99.90;;;;;;4362527;32;44176;-80
2022/07/01 04:02:06;;;;;;;;;;;16.50;99.90;;;;;;4359335;32;43793;-79
2022/07/01 04:04:34;;;;;;;;;;;16.40;99.90;;;;;;4359297;32;44176;-78
2022/07/01 04:07:02;;;;;;;;;;;16.50;99.90;;;;;;4360860;32;43083;-79
2022/07/01 04:09:30;;;;;;;;;;;16.50;99.90;;;;;;4360754;32;44223;-80
2022/07/01 04:11:57;;;;;;;;;;;16.50;99.90;;;;;;4359254;32;43043;-77
2022/07/01 04:14:25;;;;;;;;;;;16.50;99.90;;;;;;4360411;32;42583;-77
2022/07/01 04:16:52;;;;;;;;;;;16.50;99.90;;;;;;4360611;32;44021;-80
2022/07/01 04:19:20;;;;;;;;;;;16.50;99.90;;;;;;4360745;32;44303;-79
2022/07/01 04:24:33;;;;;;;;;;;16.40;99.90;;;;;;4360626;32;44375;-78
2022/07/01 04:27:01;;;;;;;;;;;16.50;99.90;;;;;;4359183;32;42978;-80
2022/07/01 04:29:31;;;;;;;;;;;16.50;99.90;;;;;;4359416;32;43608;-78
2022/07/01 04:31:58;;;;;;;;;;;16.40;99.90;;;;;;4360055;32;43063;-78
2022/07/01 04:34:25;;;;;;;;;;;16.50;99.90;;;;;;4359370;32;43733;-81
2022/07/01 04:36:52;;;;;;;;;;;16.40;99.90;;;;;;4359400;32;43906;-80
2022/07/01 04:39:19;;;;;;;;;;;16.40;99.90;;;;;;4359153;32;43975;-79
2022/07/01 04:41:59;;;;;;;;;;;16.40;99.90;;;;;;4360323;32;42938;-80
2022/07/01 04:44:33;;;;;;;;;;;16.50;99.90;;;;;;4359923;32;42625;-78
2022/07/01 04:47:00;;;;;;;;;;;16.50;99.90;;;;;;4359907;32;43380;-80
2022/07/01 04:49:28;;;;;;;;;;;16.50;99.90;;;;;;4358746;32;42640;-80
2022/07/01 04:51:56;;;;;;;;;;;16.40;99.90;;;;;;4360330;32;44359;-79
2022/07/01 04:54:23;;;;;;;;;;;16.40;99.90;;;;;;4359934;32;43196;-80
2022/07/01 04:56:51;;;;;;;;;;;16.40;99.90;;;;;;4359727;32;43124;-79
2022/07/01 04:59:19;;;;;;;;;;;16.40;99.90;;;;;;4360271;32;42967;-78
2022/07/01 05:01:51;;;;;;;;;;;16.40;99.90;;;;;;4362077;32;43577;-77
2022/07/01 05:04:20;;;;;;;;;;;16.50;99.90;;;;;;4375076;32;43712;-77
2022/07/01 05:06:49;;;;;;;;;;;16.40;99.90;;;;;;4374508;32;43462;-78
2022/07/01 05:09:20;;;;;;;;;;;16.40;99.90;;;;;;4361929;32;43530;-81
2022/07/01 05:11:54;;;;;;;;;;;16.40;99.90;;;;;;4362272;32;43298;-78
2022/07/01 05:14:24;;;;;;;;;;;16.40;99.90;;;;;;4363248;32;20031;-78
2022/07/01 05:16:53;;;;;;;;;;;16.50;99.90;;;;;;4361239;32;44158;-79
2022/07/01 05:22:20;;;;;;;;;;;16.40;99.90;;;;;;4374446;32;43785;-78
2022/07/01 05:24:50;;;;;;;;;;;16.40;99.90;;;;;;4361481;32;43502;-78
2022/07/01 05:27:17;;;;;;;;;;;16.40;99.90;;;;;;4374440;32;42671;-78
2022/07/01 05:29:44;;;;;;;;;;;16.40;99.90;;;;;;4375142;32;23326;-78
2022/07/01 05:32:15;;;;;;;;;;;16.40;99.90;;;;;;4374580;32;43865;-79
2022/07/01 05:34:54;;;;;;;;;;;16.40;99.90;;;;;;4362904;32;44200;-78
2022/07/01 05:37:24;;;;;;;;;;;16.40;99.90;;;;;;4361070;32;44173;-78
2022/07/01 05:39:57;;;;;;;;;;;16.40;99.90;;;;;;4362025;32;44050;-80
2022/07/01 05:42:27;;;;;;;;;;;16.40;99.90;;;;;;4375442;32;20754;-80
2022/07/01 05:44:58;;;;;;;;;;;16.40;99.90;;;;;;4375991;32;20042;-79
2022/07/01 05:47:27;;;;;;;;;;;16.40;99.90;;;;;;4376075;32;20022;-80
2022/07/01 05:49:56;;;;;;;;;;;16.40;99.90;;;;;;4375598;32;20027;-79
2022/07/01 05:52:30;;;;;;;;;;;16.40;99.90;;;;;;4375822;32;20079;-79
2022/07/01 05:54:57;;;;;;;;;;;16.40;99.90;;;;;;4360908;32;43489;-78
2022/07/01 05:57:26;;;;;;;;;;;16.40;99.90;;;;;;4375970;32;20030;-81
2022/07/01 05:59:59;;;;;;;;;;;16.40;99.90;;;;;;4374157;32;42958;-79
2022/07/01 06:02:26;;;;;;;;;;;16.40;99.90;;;;;;4374201;32;44033;-80
2022/07/01 06:05:06;;;;;;;;;;;16.50;99.90;;;;;;4362371;32;20416;-79
2022/07/01 06:07:33;;;;;;;;;;;16.50;99.90;;;;;;4360878;32;42914;-80
2022/07/01 06:10:00;;;;;;;;;;;16.40;99.90;;;;;;4374541;32;42029;-83
2022/07/01 06:12:38;;;;;;;;;;;16.40;99.90;;;;;;4361477;32;43406;-79
2022/07/01 06:15:08;;;;;;;;;;;16.40;99.90;;;;;;4364477;32;20034;-79
2022/07/01 06:17:42;;;;;;;;;;;16.40;99.90;;;;;;4364785;32;20416;-80
2022/07/01 06:20:12;;;;;;;;;;;16.40;99.90;;;;;;4378492;32;20012;-80
2022/07/01 06:22:48;;;;;;;;;;;16.50;99.90;;;;;;4365340;32;20036;-78
2022/07/01 06:25:18;;;;;;;;;;;16.50;99.90;;;;;;4363722;32;44829;-79
2022/07/01 06:27:56;;;;;;;;;;;16.50;99.90;;;;;;4377312;32;44148;-78
2022/07/01 06:30:26;;;;;;;;;;;16.50;99.90;;;;;;4376629;32;43568;-77
2022/07/01 06:32:53;;;;;;;;;;;16.50;99.90;;;;;;4364016;32;26157;-77
2022/07/01 06:35:29;;;;;;;;;;;16.50;99.90;;;;;;4363421;32;43539;-77
2022/07/01 06:38:02;;;;;;;;;;;16.50;99.90;;;;;;4377088;32;44187;-78
2022/07/01 06:40:30;;;;;;;;;;;16.50;99.90;;;;;;4377984;32;20068;-77
2022/07/01 06:43:07;;;;;;;;;;;16.50;99.90;;;;;;4364297;32;42567;-77
2022/07/01 06:45:36;;;;;;;;;;;16.50;99.90;;;;;;4377642;32;20012;-77
2022/07/01 06:48:03;;;;;;;;;;;16.50;99.90;;;;;;4363000;32;42715;-77
2022/07/01 06:50:30;;;;;;;;;;;16.50;99.90;;;;;;4376337;32;42674;-77
2022/07/01 06:52:57;;;;;;;;;;;16.60;99.90;;;;;;4363116;32;43995;-77
2022/07/01 06:55:24;;;;;;;;;;;16.60;99.90;;;;;;4376782;32;43783;-78
2022/07/01 06:57:52;;;;;;;;;;;16.60;99.90;;;;;;4362895;32;43983;-77
2022/07/01 07:00:19;;;;;;;;;;;16.60;99.90;;;;;;4362923;32;43542;-78
2022/07/01 07:02:46;;;;;;;;;;;16.60;99.90;;;;;;4376259;32;42566;-77
2022/07/01 07:05:14;;;;;;;;;;;16.60;99.90;;;;;;4376523;32;43909;-77
2022/07/01 07:07:41;;;;;;;;;;;16.60;99.90;;;;;;4362708;32;44124;-79
2022/07/01 07:10:08;;;;;;;;;;;16.60;99.90;;;;;;4376305;32;43918;-77
2022/07/01 07:12:36;;;;;;;;;;;16.60;99.90;;;;;;4376133;32;43182;-76
2022/07/01 07:15:03;;;;;;;;;;;16.60;99.90;;;;;;4376556;32;43581;-77
2022/07/01 07:17:30;;;;;;;;;;;16.60;99.90;;;;;;4376458;32;45259;-77
2022/07/01 07:19:57;;;;;;;;;;;16.60;99.90;;;;;;4375997;32;42265;-77
2022/07/01 07:22:25;;;;;;;;;;;16.60;99.90;;;;;;4376570;32;44088;-77
2022/07/01 07:24:53;;;;;;;;;;;16.60;99.90;;;;;;4362604;32;44076;-77
2022/07/01 07:27:20;;;;;;;;;;;16.60;99.90;;;;;;4376153;32;43344;-77
2022/07/01 07:29:48;;;;;;;;;;;16.60;99.90;;;;;;4376178;32;43818;-77
2022/07/01 07:32:15;;;;;;;;;;;16.60;99.90;;;;;;4375760;32;43348;-77
2022/07/01 07:34:42;;;;;;;;;;;16.60;99.90;;;;;;4376330;32;44189;-77
2022/07/01 07:37:09;;;;;;;;;;;16.60;99.90;;;;;;4362918;32;44209;-77
2022/07/01 07:39:36;;;;;;;;;;;16.60;99.90;;;;;;4362854;32;45548;-76
2022/07/01 07:42:04;;;;;;;;;;;16.60;99.90;;;;;;4376227;32;43307;-77
2022/07/01 07:44:31;;;;;;;;;;;16.60;99.90;;;;;;4376047;32;44013;-77
2022/07/01 07:46:58;;;;;;;;;;;16.60;99.90;;;;;;4376166;32;43882;-77
2022/07/01 07:49:27;;;;;;;;;;;16.60;99.90;;;;;;4362105;32;43854;-76
2022/07/01 07:51:54;;;;;;;;;;;16.60;99.90;;;;;;4375630;32;43708;-77
2022/07/01 07:54:22;;;;;;;;;;;16.60;99.90;;;;;;4375378;32;45641;-76
2022/07/01 07:56:49;;;;;;;;;;;16.60;99.90;;;;;;4375729;32;44736;-76
2022/07/01 07:59:16;;;;;;;;;;;16.60;99.90;;;;;;4362007;32;42947;-78
2022/07/01 08:01:43;;;;;;;;;;;16.60;99.90;;;;;;4361818;32;43311;-77
2022/07/01 08:04:12;;;;;;;;;;;16.60;99.90;;;;;;4375301;32;43093;-77
2022/07/01 08:06:40;;;;;;;;;;;16.60;99.90;;;;;;4361926;32;43513;-76
2022/07/01 08:09:07;;;;;;;;;;;16.60;99.90;;;;;;4375289;32;44710;-77
2022/07/01 08:11:34;;;;;;;;;;;16.60;99.90;;;;;;4375342;32;43486;-76
2022/07/01 08:14:01;;;;;;;;;;;16.60;99.90;;;;;;4375668;32;44234;-75
2022/07/01 08:16:29;;;;;;;;;;;16.60;99.90;;;;;;4361901;32;42159;-76
2022/07/01 08:18:56;;;;;;;;;;;16.70;99.90;;;;;;4362241;32;44084;-77
2022/07/01 08:21:23;;;;;;;;;;;16.60;99.90;;;;;;4361974;32;44302;-75
2022/07/01 08:23:50;;;;;;;;;;;16.70;99.90;;;;;;4375503;32;43394;-77
2022/07/01 08:26:18;;;;;;;;;;;16.70;99.90;;;;;;4362199;32;43794;-76
2022/07/01 08:28:45;;;;;;;;;;;16.70;99.90;;;;;;4361550;32;43580;-76
2022/07/01 08:31:13;;;;;;;;;;;16.70;99.90;;;;;;4375667;32;43211;-76
2022/07/01 08:33:40;;;;;;;;;;;16.60;99.90;;;;;;4361931;32;43279;-76
2022/07/01 08:36:08;;;;;;;;;;;16.70;99.90;;;;;;4374609;32;42880;-76
2022/07/01 08:38:36;;;;;;;;;;;16.70;99.90;;;;;;4361814;32;42081;-77
2022/07/01 08:41:04;;;;;;;;;;;16.60;99.90;;;;;;4375385;32;43859;-77
2022/07/01 08:43:31;;;;;;;;;;;16.60;99.90;;;;;;4361789;32;43357;-76
2022/07/01 08:46:03;;;;;;;;;;;16.60;99.90;;;;;;4374905;32;43853;-77
2022/07/01 08:48:31;;;;;;;;;;;16.60;99.90;;;;;;4361437;32;43073;-77
2022/07/01 08:50:58;;;;;;;;;;;16.70;99.90;;;;;;4374792;32;43450;-77
2022/07/01 08:53:25;;;;;;;;;;;16.70;99.90;;;;;;4361871;32;43836;-76
2022/07/01 08:58:38;;;;;;;;;;;16.70;99.90;;;;;;4375520;32;43203;-76
2022/07/01 09:01:12;;;;;;;;;;;16.70;99.90;;;;;;4361225;32;42640;-76
2022/07/01 09:03:39;;;;;;;;;;;16.70;99.90;;;;;;4361056;32;42972;-78
2022/07/01 09:06:13;;;;;;;;;;;16.70;99.90;;;;;;4375026;32;44925;-76
2022/07/01 09:08:41;;;;;;;;;;;16.70;99.90;;;;;;4374674;32;44021;-76
2022/07/01 09:11:26;;;;;;;;;;;16.70;99.90;;;;;;4361160;32;42531;-76
2022/07/01 09:14:07;;;;;;;;;;;16.70;99.90;;;;;;4375175;32;44195;-75
2022/07/01 09:16:41;;;;;;;;;;;16.70;99.90;;;;;;4375131;32;43703;-77
2022/07/01 09:19:09;;;;;;;;;;;16.70;99.90;;;;;;4374581;32;42824;-76
2022/07/01 09:21:36;;;;;;;;;;;16.70;99.90;;;;;;4374448;32;42461;-77
2022/07/01 09:24:23;;;;;;;;;;;16.70;99.90;;;;;;4360909;32;43755;-75
2022/07/01 09:26:59;;;;;;;;;;;16.70;99.90;;;;;;4361826;32;43856;-77
2022/07/01 09:29:27;;;;;;;;;;;16.70;99.90;;;;;;4361530;32;43209;-79
2022/07/01 09:31:54;;;;;;;;;;;16.80;99.90;;;;;;4374573;32;43636;-76
2022/07/01 09:34:24;;;;;;;;;;;16.80;99.90;;;;;;4374543;32;42591;-77
2022/07/01 09:36:52;;;;;;;;;;;16.70;99.90;;;;;;4374616;32;43506;-76
2022/07/01 09:39:19;;;;;;;;;;;16.80;99.90;;;;;;4361034;32;42079;-77
2022/07/01 09:42:06;;;;;;;;;;;16.80;99.90;;;;;;4374846;32;44294;-79
2022/07/01 09:44:34;;;;;;;;;;;16.70;99.90;;;;;;4374557;32;43519;-75
2022/07/01 09:47:05;;;;;;;;;;;16.80;99.90;;;;;;4361552;32;42114;-75
2022/07/01 09:49:32;;;;;;;;;;;16.80;99.90;;;;;;4364033;32;43083;-75
2022/07/01 09:52:00;;;;;;;;;;;16.80;99.90;;;;;;4377663;32;43684;-75
2022/07/01 09:54:27;;;;;;;;;;;16.80;99.90;;;;;;4364316;32;43962;-76
2022/07/01 09:56:54;;;;;;;;;;;16.80;99.90;;;;;;4363799;32;43035;-77
2022/07/01 09:59:21;;;;;;;;;;;16.80;99.90;;;;;;4377545;32;43715;-77
2022/07/01 10:01:48;;;;;;;;;;;16.80;99.90;;;;;;4377317;32;44179;-75
2022/07/01 10:04:19;;;;;;;;;;;16.80;99.90;;;;;;4377020;32;43439;-75
2022/07/01 10:06:58;;;;;;;;;;;16.80;99.90;;;;;;4377045;32;42045;-75
2022/07/01 10:09:25;;;;;;;;;;;16.80;99.90;;;;;;4364050;32;43254;-75
2022/07/01 10:11:52;;;;;;;;;;;16.80;99.90;;;;;;4363891;32;43859;-76
2022/07/01 10:14:20;;;;;;;;;;;16.80;99.90;;;;;;4377310;32;41745;-75
2022/07/01 10:16:50;;;;;;;;;;;16.80;99.90;;;;;;4377420;32;44207;-76
2022/07/01 10:19:23;;;;;;;;;;;16.80;99.90;;;;;;4377538;32;20686;-75
2022/07/01 10:21:52;;;;;;;;;;;16.80;99.90;;;;;;4377325;32;44886;-75
2022/07/01 10:24:19;;;;;;;;;;;16.80;99.90;;;;;;4363516;32;44347;-76
2022/07/01 10:26:46;;;;;;;;;;;16.90;99.90;;;;;;4363428;32;43261;-74
2022/07/01 10:29:30;;;;;;;;;;;16.90;99.90;;;;;;4376824;32;43638;-76
2022/07/01 10:32:03;;;;;;;;;;;16.90;99.90;;;;;;4363182;32;43230;-74
2022/07/01 10:34:40;;;;;;;;;;;16.90;99.90;;;;;;4363663;32;42169;-74
2022/07/01 10:37:12;;;;;;;;;;;16.80;99.90;;;;;;4377346;32;43005;-74
2022/07/01 10:39:58;;;;;;;;;;;16.90;99.90;;;;;;4376722;32;43449;-73
2022/07/01 10:42:29;;;;;;;;;;;16.90;99.90;;;;;;4363124;32;44237;-73
2022/07/01 10:45:03;;;;;;;;;;;16.90;99.90;;;;;;4376973;32;44207;-74
2022/07/01 10:47:31;;;;;;;;;;;16.90;99.90;;;;;;4376435;32;43628;-73
2022/07/01 10:50:08;;;;;;;;;;;16.90;99.90;;;;;;4363683;32;21059;-74
2022/07/01 10:52:35;;;;;;;;;;;17.00;99.90;;;;;;4363543;32;43619;-73
2022/07/01 10:55:04;;;;;;;;;;;17.00;99.90;;;;;;4376307;32;43247;-76
2022/07/01 10:57:31;;;;;;;;;;;17.00;99.90;;;;;;4376258;32;43031;-74
2022/07/01 10:59:58;;;;;;;;;;;17.00;99.90;;;;;;4362891;32;44193;-74
2022/07/01 11:02:26;;;;;;;;;;;17.00;99.90;;;;;;4376385;32;43052;-74
2022/07/01 11:04:57;;;;;;;;;;;17.00;99.90;;;;;;4376490;32;43579;-74
2022/07/01 11:07:26;;;;;;;;;;;17.00;99.90;;;;;;4376661;32;42752;-73
2022/07/01 11:09:53;;;;;;;;;;;17.10;99.90;;;;;;4376113;32;43474;-76
2022/07/01 11:12:23;;;;;;;;;;;17.10;99.90;;;;;;4376050;32;43140;-73
2022/07/01 11:14:50;;;;;;;;;;;17.10;99.90;;;;;;4376656;32;43685;-75
2022/07/01 11:17:18;;;;;;;;;;;17.10;99.90;;;;;;4362719;32;43871;-74
2022/07/01 11:19:54;;;;;;;;;;;17.10;99.90;;;;;;4376422;32;43650;-74
2022/07/01 11:22:25;;;;;;;;;;;17.10;99.70;;;;;;4363111;32;44772;-74
2022/07/01 11:24:59;;;;;;;;;;;17.10;99.70;;;;;;4376090;32;43408;-74
2022/07/01 11:27:27;;;;;;;;;;;17.10;99.80;;;;;;4363084;32;43344;-74
2022/07/01 11:29:55;;;;;;;;;;;17.10;99.90;;;;;;4362820;32;44207;-74
2022/07/01 11:32:26;;;;;;;;;;;17.20;99.90;;;;;;4376043;32;44103;-74
2022/07/01 11:34:54;;;;;;;;;;;17.20;99.90;;;;;;4376036;32;44258;-73
2022/07/01 11:40:08;;;;;;;;;;;17.30;99.60;;;;;;4376357;32;43182;-73
2022/07/01 11:42:35;;;;;;;;;;;17.20;99.70;;;;;;4362568;32;43318;-73
2022/07/01 11:45:03;;;;;;;;;;;17.30;99.70;;;;;;4362247;32;42930;-75
2022/07/01 11:47:30;;;;;;;;;;;17.30;99.30;;;;;;4376046;32;44258;-73
2022/07/01 11:49:57;;;;;;;;;;;17.30;99.00;;;;;;4376098;32;43007;-74
2022/07/01 11:52:25;;;;;;;;;;;17.40;99.00;;;;;;4376548;32;20000;-74
2022/07/01 11:54:53;;;;;;;;;;;17.30;99.10;;;;;;4362563;32;43022;-74
2022/07/01 11:57:40;;;;;;;;;;;17.30;99.10;;;;;;4375901;32;43709;-73
2022/07/01 12:00:11;;;;;;;;;;;17.40;99.50;;;;;;4375414;32;42870;-74
2022/07/01 12:02:38;;;;;;;;;;;17.40;99.40;;;;;;4362432;32;43255;-75
2022/07/01 12:05:06;;;;;;;;;;;17.40;99.30;;;;;;4375464;32;42783;-74
2022/07/01 12:07:33;;;;;;;;;;;17.40;99.10;;;;;;4375643;32;43664;-75
2022/07/01 12:10:03;;;;;;;;;;;17.40;98.70;;;;;;4374763;32;42634;-74
2022/07/01 12:12:30;;;;;;;;;;;17.40;98.70;;;;;;4375385;32;42856;-73
2022/07/01 12:14:58;;;;;;;;;;;17.40;98.70;;;;;;4375270;32;42321;-74
2022/07/01 12:17:27;;;;;;;;;;;17.40;98.60;;;;;;4375449;32;43057;-75
2022/07/01 12:19:55;;;;;;;;;;;17.50;98.70;;;;;;4375127;32;43651;-74
2022/07/01 12:22:26;;;;;;;;;;;17.50;99.10;;;;;;4361680;32;42513;-74
2022/07/01 12:25:04;;;;;;;;;;;17.50;99.00;;;;;;4362029;32;44850;-74
2022/07/01 12:27:33;;;;;;;;;;;17.50;98.60;;;;;;4375087;32;43616;-74
2022/07/01 12:30:00;;;;;;;;;;;17.50;99.10;;;;;;4375348;32;43703;-74
2022/07/01 12:32:28;;;;;;;;;;;17.50;99.20;;;;;;4375464;32;43053;-74
2022/07/01 12:34:58;;;;;;;;;;;17.50;99.10;;;;;;4375090;32;43065;-75
2022/07/01 12:37:31;;;;;;;;;;;17.50;99.60;;;;;;4375245;32;42173;-74
2022/07/01 12:39:59;;;;;;;;;;;17.60;98.70;;;;;;4374840;32;42922;-74
2022/07/01 12:42:39;;;;;;;;;;;17.60;98.70;;;;;;4375090;32;43034;-75
2022/07/01 12:45:07;;;;;;;;;;;17.60;98.50;;;;;;4375422;32;43133;-74
2022/07/01 12:47:34;;;;;;;;;;;17.60;98.40;;;;;;4374804;32;43694;-78
2022/07/01 12:50:10;;;;;;;;;;;17.60;98.30;;;;;;4374706;32;43744;-74
2022/07/01 12:52:38;;;;;;;;;;;17.70;98.40;;;;;;4361394;32;44311;-74
2022/07/01 12:55:18;;;;;;;;;;;17.70;98.50;;;;;;4375062;32;43178;-74
2022/07/01 12:57:49;;;;;;;;;;;17.70;98.40;;;;;;4361242;32;43037;-73
2022/07/01 13:00:17;;;;;;;;;;;17.70;98.30;;;;;;4361824;32;42967;-73
2022/07/01 13:02:44;;;;;;;;;;;17.70;98.60;;;;;;4374679;32;43017;-75
2022/07/01 13:05:12;;;;;;;;;;;17.70;98.40;;;;;;4374768;32;42872;-74
2022/07/01 13:07:39;;;;;;;;;;;17.80;98.30;;;;;;4361212;32;43708;-74
2022/07/01 13:10:12;;;;;;;;;;;17.80;98.30;;;;;;4362277;32;44034;-74
2022/07/01 13:12:39;;;;;;;;;;;17.80;98.50;;;;;;4374509;32;44313;-74
2022/07/01 13:15:06;;;;;;;;;;;17.90;97.90;;;;;;4375044;32;42856;-75
2022/07/01 13:17:34;;;;;;;;;;;17.80;98.00;;;;;;4375009;32;43890;-74
2022/07/01 13:20:05;;;;;;;;;;;17.90;97.90;;;;;;4374950;32;43692;-73
2022/07/01 13:22:32;;;;;;;;;;;17.90;97.80;;;;;;4379311;32;37505;-74
2022/07/01 13:24:59;;;;;;;;;;;17.90;97.90;;;;;;4380687;32;20075;-74
2022/07/01 13:27:26;;;;;;;;;;;17.90;97.70;;;;;;4379837;32;43562;-76
2022/07/01 13:29:54;;;;;;;;;;;18.00;97.40;;;;;;4379362;32;42101;-74
2022/07/01 13:32:21;;;;;;;;;;;18.00;97.20;;;;;;4379411;32;44802;-74
2022/07/01 13:34:49;;;;;;;;;;;18.00;97.00;;;;;;4379618;32;42676;-74
2022/07/01 13:37:16;;;;;;;;;;;18.00;97.50;;;;;;4379852;32;43890;-74
2022/07/01 13:39:43;;;;;;;;;;;18.00;97.30;;;;;;4379411;32;44215;-74
2022/07/01 13:42:10;;;;;;;;;;;18.00;97.00;;;;;;4379835;32;43414;-74
2022/07/01 13:44:37;;;;;;;;;;;18.00;96.80;;;;;;4379390;32;43906;-74
2022/07/01 13:47:09;;;;;;;;;;;18.00;96.90;;;;;;4379209;32;43494;-76
2022/07/01 13:49:36;;;;;;;;;;;18.00;97.10;;;;;;4379859;32;43878;-74
2022/07/01 13:52:08;;;;;;;;;;;18.00;97.20;;;;;;4366419;32;43831;-74
2022/07/01 13:54:35;;;;;;;;;;;18.10;97.00;;;;;;4379290;32;43930;-74
2022/07/01 13:57:08;;;;;;;;;;;18.10;97.40;;;;;;4379261;32;44039;-74
2022/07/01 13:59:35;;;;;;;;;;;18.10;97.50;;;;;;4365821;32;44203;-74
2022/07/01 14:02:09;;;;;;;;;;;18.10;97.60;;;;;;4379812;32;31946;-75
2022/07/01 14:04:36;;;;;;;;;;;18.10;97.50;;;;;;4365738;32;43692;-74
2022/07/01 14:07:04;;;;;;;;;;;18.20;97.50;;;;;;4366333;32;43186;-74
2022/07/01 14:09:31;;;;;;;;;;;18.20;97.40;;;;;;4379489;32;42952;-74
2022/07/01 14:11:59;;;;;;;;;;;18.20;97.60;;;;;;4366175;32;42880;-77
2022/07/01 14:14:29;;;;;;;;;;;18.20;97.60;;;;;;4379005;32;42642;-77
2022/07/01 14:16:56;;;;;;;;;;;18.20;97.40;;;;;;4365655;32;42938;-75
2022/07/01 14:19:23;;;;;;;;;;;18.30;97.40;;;;;;4379081;32;43700;-75
2022/07/01 14:21:50;;;;;;;;;;;18.20;97.60;;;;;;4366101;32;42919;-76
2022/07/01 14:24:18;;;;;;;;;;;18.30;97.90;;;;;;4365794;32;42844;-75
2022/07/01 14:26:45;;;;;;;;;;;18.30;97.60;;;;;;4379070;32;43781;-75
2022/07/01 14:29:12;;;;;;;;;;;18.30;97.40;;;;;;4365959;32;43031;-76
2022/07/01 14:31:39;;;;;;;;;;;18.30;97.00;;;;;;4379474;32;43214;-76
2022/07/01 14:34:06;;;;;;;;;;;18.40;97.40;;;;;;4376805;32;42530;-76
2022/07/01 14:36:33;;;;;;;;;;;18.40;96.90;;;;;;4377092;32;43823;-75